Time;durP1;ratioP1;P1;durP2;ratioP2;P2;SDS_P1;SDS_P2;PMS_P1;PMS_P2;Temp;Humidity;BMP_temperature;BMP_pressure;BME280_temperature;BME280_humidity;BME280_pressure;Samples;Min_cycle;Max_cycle;Signal;HPM_P1;HPM_P2
2024/01/03 00:01:28;;;;;;;0.00;0.00;;;;;;;10.43;90.15;93842.47;4363699;32;20224;-58
2024/01/03 00:03:56;;;;;;;0.00;0.00;;;;;;;10.40;90.22;93842.34;4383523;32;20221;-58
2024/01/03 00:06:21;;;;;;;0.00;0.00;;;;;;;10.40;89.67;93842.34;4324279;32;20197;-58
2024/01/03 00:08:48;;;;;;;0.00;0.00;;;;;;;10.32;89.76;93830.75;4368340;32;20188;-58
2024/01/03 00:11:30;;;;;;;0.00;0.00;;;;;;;10.41;89.47;93834.06;4355081;32;20201;-58
2024/01/03 00:14:27;;;;;;;0.00;0.00;;;;;;;10.40;89.77;93845.78;4336894;32;20219;-58
2024/01/03 00:17:07;;;;;;;0.00;0.00;;;;;;;10.41;88.94;93834.06;4380882;32;20197;-60
2024/01/03 00:19:35;;;;;;;0.00;0.00;;;;;;;10.38;89.04;93844.56;4357585;32;20231;-59
2024/01/03 00:22:03;;;;;;;0.10;0.10;;;;;;;10.33;89.26;93846.31;4374293;32;20248;-59
2024/01/03 00:24:44;;;;;;;0.00;0.00;;;;;;;10.35;89.42;93858.47;4373702;32;20243;-58
2024/01/03 00:27:11;;;;;;;0.30;0.30;;;;;;;10.29;89.42;93850.72;4360372;32;20298;-58
2024/01/03 00:29:51;;;;;;;5.93;1.20;;;;;;;10.26;89.47;93843.44;4369251;32;20244;-59
2024/01/03 00:32:21;;;;;;;0.83;0.83;;;;;;;10.28;89.85;93846.53;4362831;32;20243;-58
2024/01/03 00:34:48;;;;;;;0.30;0.30;;;;;;;10.30;89.65;93843.56;4382244;32;20189;-59
2024/01/03 00:37:26;;;;;;;0.30;0.10;;;;;;;10.19;89.93;93853.78;4362593;32;20216;-58
2024/01/03 00:39:57;;;;;;;0.17;0.10;;;;;;;10.26;90.03;93861.22;4356170;32;20297;-61
2024/01/03 00:42:24;;;;;;;0.00;0.00;;;;;;;10.20;89.76;93830.69;4348483;32;20200;-61
2024/01/03 00:44:52;;;;;;;0.20;0.20;;;;;;;10.15;89.95;93850.22;4361277;32;20238;-58
2024/01/03 00:47:20;;;;;;;0.20;0.20;;;;;;;10.07;90.67;93856.38;4376929;32;20225;-59
2024/01/03 00:49:47;;;;;;;0.00;0.00;;;;;;;10.02;90.98;93866.37;4357526;32;20207;-58
2024/01/03 00:52:12;;;;;;;0.00;0.00;;;;;;;9.98;90.87;93861.72;4346396;32;20268;-58
2024/01/03 00:54:39;;;;;;;0.10;0.10;;;;;;;10.00;90.95;93893.19;4354085;32;20253;-58
2024/01/03 00:57:08;;;;;;;0.00;0.00;;;;;;;9.98;90.66;93863.59;4330461;32;20247;-59
2024/01/03 00:59:35;;;;;;;0.00;0.00;;;;;;;9.91;91.27;93848.25;4377520;32;20277;-58
2024/01/03 01:02:03;;;;;;;0.00;0.00;;;;;;;9.91;90.72;93861.50;4374152;32;20276;-58
2024/01/03 01:04:32;;;;;;;0.00;0.00;;;;;;;9.85;91.16;93862.78;4372233;32;20201;-59
2024/01/03 01:06:59;;;;;;;0.00;0.00;;;;;;;9.88;90.74;93901.88;4370037;32;20214;-59
2024/01/03 01:09:25;;;;;;;0.20;0.20;;;;;;;9.89;90.11;93868.22;4376313;32;20360;-60
2024/01/03 01:11:53;;;;;;;0.00;0.00;;;;;;;9.89;89.88;93874.28;4365412;32;20287;-59
2024/01/03 01:14:18;;;;;;;0.00;0.00;;;;;;;9.84;90.20;93863.09;4376267;32;20188;-58
2024/01/03 01:16:45;;;;;;;0.00;0.00;;;;;;;9.77;90.56;93881.41;4384707;32;20206;-58
2024/01/03 01:19:12;;;;;;;0.20;0.20;;;;;;;9.75;90.78;93886.25;4347125;32;20189;-58
2024/01/03 01:21:42;;;;;;;0.00;0.00;;;;;;;9.75;91.00;93880.94;4322138;32;20258;-59
2024/01/03 01:24:11;;;;;;;0.00;0.00;;;;;;;9.74;90.66;93874.09;4368726;32;20216;-58
2024/01/03 01:26:37;;;;;;;0.00;0.00;;;;;;;9.77;90.01;93881.41;4363335;32;20334;-58
2024/01/03 01:29:03;;;;;;;0.00;0.00;;;;;;;9.70;90.21;93891.72;4354374;32;20284;-58
2024/01/03 01:31:28;;;;;;;0.00;0.00;;;;;;;9.67;90.71;93895.03;4368537;32;20223;-59
2024/01/03 01:33:57;;;;;;;0.10;0.10;;;;;;;9.66;90.39;93894.25;4377134;32;20204;-58
2024/01/03 01:36:22;;;;;;;0.00;0.00;;;;;;;9.72;89.78;93897.47;4332949;32;20347;-58
2024/01/03 01:38:47;;;;;;;0.00;0.00;;;;;;;9.76;89.91;93904.47;4330416;32;20209;-59
2024/01/03 01:41:14;;;;;;;0.20;0.20;;;;;;;9.71;89.93;93906.53;4343526;32;20200;-58
2024/01/03 01:43:41;;;;;;;0.00;0.00;;;;;;;9.69;90.01;93917.44;4374530;32;20302;-58
2024/01/03 01:46:30;;;;;;;0.00;0.00;;;;;;;9.63;90.51;93914.19;4371667;32;20188;-58
2024/01/03 01:48:56;;;;;;;0.00;0.00;;;;;;;9.68;90.01;93920.41;4344991;32;20363;-58
2024/01/03 01:51:22;;;;;;;0.00;0.00;;;;;;;9.71;89.57;93922.41;4381239;32;20367;-58
2024/01/03 01:53:51;;;;;;;0.10;0.10;;;;;;;9.74;89.37;93924.41;4367894;32;20306;-58
2024/01/03 01:56:19;;;;;;;0.00;0.00;;;;;;;9.79;89.50;93913.63;4371980;32;20185;-58
2024/01/03 01:58:47;;;;;;;0.07;0.07;;;;;;;9.83;89.52;93920.59;4328633;32;20290;-58
2024/01/03 02:01:14;;;;;;;0.10;0.10;;;;;;;9.78;89.71;93918.13;4335772;32;20384;-58
2024/01/03 02:03:42;;;;;;;0.00;0.00;;;;;;;9.85;89.89;93914.97;4354928;32;20295;-58
2024/01/03 02:06:09;;;;;;;0.13;0.13;;;;;;;9.88;89.66;93928.34;4350331;32;20392;-58
2024/01/03 02:08:37;;;;;;;0.00;0.00;;;;;;;9.81;89.84;93920.13;4360840;32;20193;-58
2024/01/03 02:11:04;;;;;;;0.00;0.00;;;;;;;9.87;89.97;93937.41;4353918;32;20307;-59
2024/01/03 02:13:32;;;;;;;0.10;0.10;;;;;;;9.90;89.79;93931.47;4370367;32;20360;-58
2024/01/03 02:15:58;;;;;;;0.00;0.00;;;;;;;9.92;89.89;93931.91;4372709;32;20200;-59
2024/01/03 02:18:30;;;;;;;0.00;0.00;;;;;;;9.90;89.90;93931.47;4392175;32;20240;-59
2024/01/03 02:20:58;;;;;;;0.00;0.00;;;;;;;9.84;90.24;93934.63;4331077;32;20247;-59
2024/01/03 02:23:24;;;;;;;0.10;0.10;;;;;;;9.87;90.21;93928.69;4356290;32;20240;-58
2024/01/03 02:25:52;;;;;;;0.10;0.10;;;;;;;9.89;90.43;93935.22;4375638;32;20279;-62
2024/01/03 02:28:19;;;;;;;0.03;0.03;;;;;;;9.94;90.01;93932.38;4358826;32;20249;-59
2024/01/03 02:30:48;;;;;;;0.40;0.33;;;;;;;9.92;90.30;93937.22;4356689;32;20219;-58
2024/01/03 02:33:13;;;;;;;0.10;0.10;;;;;;;9.94;89.97;93940.31;4347645;32;20189;-59
2024/01/03 02:35:40;;;;;;;0.00;0.00;;;;;;;9.95;89.53;93928.63;4367755;32;20309;-58
2024/01/03 02:38:07;;;;;;;0.00;0.00;;;;;;;9.95;89.48;93923.34;4348959;32;20192;-59
2024/01/03 02:40:33;;;;;;;0.10;0.10;;;;;;;10.00;89.03;93928.41;4332981;32;20197;-59
2024/01/03 02:43:00;;;;;;;0.10;0.10;;;;;;;9.99;89.02;93923.44;4376744;32;20208;-58
2024/01/03 02:45:26;;;;;;;0.00;0.00;;;;;;;10.00;88.97;93923.12;4385238;32;20334;-58
2024/01/03 02:47:51;;;;;;;0.00;0.00;;;;;;;9.94;89.37;93923.66;4374346;32;20192;-59
2024/01/03 02:50:17;;;;;;;0.00;0.00;;;;;;;9.91;89.46;93913.69;4374935;32;20268;-58
2024/01/03 02:52:42;;;;;;;0.00;0.00;;;;;;;9.92;89.44;93936.44;4373733;32;20255;-59
2024/01/03 02:55:08;;;;;;;0.00;0.00;;;;;;;9.89;89.51;93935.22;4373323;32;20236;-58
2024/01/03 02:57:33;;;;;;;0.20;0.10;;;;;;;9.93;89.49;93930.03;4374174;32;20248;-59
2024/01/03 02:59:58;;;;;;;0.00;0.00;;;;;;;9.95;89.66;93947.16;4379205;32;20238;-58
2024/01/03 03:02:24;;;;;;;0.00;0.00;;;;;;;9.93;89.61;93936.13;4379003;32;20193;-59
2024/01/03 03:04:49;;;;;;;0.00;0.00;;;;;;;9.89;90.02;93945.81;4375198;32;20255;-64
2024/01/03 03:07:14;;;;;;;0.00;0.00;;;;;;;9.99;89.43;93940.09;4391031;32;20271;-58
2024/01/03 03:09:40;;;;;;;0.00;0.00;;;;;;;9.92;89.64;93931.91;4376648;32;20189;-59
2024/01/03 03:12:06;;;;;;;0.00;0.00;;;;;;;9.95;89.48;93938.44;4374467;32;20192;-58
2024/01/03 03:14:31;;;;;;;0.00;0.00;;;;;;;9.99;89.57;93949.94;4373664;32;20189;-59
2024/01/03 03:16:56;;;;;;;0.00;0.00;;;;;;;9.97;89.43;93950.28;4378870;32;20251;-59
2024/01/03 03:19:22;;;;;;;0.10;0.10;;;;;;;9.98;89.05;93941.19;4373050;32;20193;-59
2024/01/03 03:21:47;;;;;;;0.00;0.00;;;;;;;9.97;89.08;93946.84;4374825;32;20272;-61
2024/01/03 03:24:12;;;;;;;0.20;0.20;;;;;;;9.93;89.17;93957.31;4375458;32;20192;-58
2024/01/03 03:26:38;;;;;;;0.00;0.00;;;;;;;9.99;89.11;93945.41;4379606;32;20209;-58
2024/01/03 03:29:03;;;;;;;0.20;0.10;;;;;;;10.01;89.04;93953.03;4388524;32;20220;-59
2024/01/03 03:31:28;;;;;;;0.17;0.17;;;;;;;10.07;88.93;93962.34;4381802;32;20201;-58
2024/01/03 03:33:53;;;;;;;0.10;0.10;;;;;;;10.07;89.05;93951.75;4374235;32;20215;-59
2024/01/03 03:36:21;;;;;;;0.00;0.00;;;;;;;10.08;89.05;93948.00;4389643;32;20201;-58
2024/01/03 03:38:46;;;;;;;0.00;0.00;;;;;;;10.07;89.14;93930.56;4375435;32;20189;-58
2024/01/03 03:41:12;;;;;;;0.00;0.00;;;;;;;10.05;89.56;93927.44;4378780;32;20188;-58
2024/01/03 03:43:39;;;;;;;0.10;0.10;;;;;;;9.98;89.35;93924.53;4386412;32;20200;-58
2024/01/03 03:46:05;;;;;;;0.00;0.00;;;;;;;10.01;89.14;93926.53;4380706;32;20236;-58
2024/01/03 03:48:31;;;;;;;0.43;0.10;;;;;;;10.01;88.75;93937.12;4372711;32;20216;-58
2024/01/03 03:50:56;;;;;;;0.00;0.00;;;;;;;10.00;87.58;93925.75;4373290;32;20254;-58
2024/01/03 03:53:21;;;;;;;0.00;0.00;;;;;;;10.07;87.62;93929.78;4375691;32;20254;-58
2024/01/03 03:55:47;;;;;;;0.03;0.03;;;;;;;9.95;87.74;93938.44;4382806;32;20219;-59
2024/01/03 03:58:12;;;;;;;0.10;0.10;;;;;;;9.99;87.71;93926.09;4374001;32;20244;-58
2024/01/03 04:00:38;;;;;;;0.27;0.20;;;;;;;10.08;87.41;93936.63;4376224;32;20261;-58
2024/01/03 04:03:07;;;;;;;0.00;0.00;;;;;;;9.97;87.61;93939.69;4386340;32;20258;-59
2024/01/03 04:05:37;;;;;;;0.73;0.20;;;;;;;9.95;88.02;93943.75;4387943;32;20236;-59
2024/01/03 04:08:02;;;;;;;0.00;0.00;;;;;;;9.98;87.56;93938.56;4387992;32;20235;-58
2024/01/03 04:10:28;;;;;;;0.10;0.10;;;;;;;9.93;87.78;93935.34;4378923;32;20223;-59
2024/01/03 04:12:55;;;;;;;0.00;0.00;;;;;;;9.92;88.36;93933.78;4385203;32;20211;-58
2024/01/03 04:15:21;;;;;;;0.00;0.00;;;;;;;9.93;88.46;93930.03;4375806;32;20192;-59
2024/01/03 04:17:46;;;;;;;0.10;0.10;;;;;;;9.89;88.45;93927.25;4385354;32;20192;-59
2024/01/03 04:20:11;;;;;;;0.20;0.17;;;;;;;9.79;89.37;93935.56;4378352;32;20264;-59
2024/01/03 04:22:41;;;;;;;0.00;0.00;;;;;;;9.83;88.75;93941.78;4376430;32;20188;-58
2024/01/03 04:25:07;;;;;;;0.00;0.00;;;;;;;9.80;88.84;93946.94;4386820;32;20231;-58
2024/01/03 04:27:32;;;;;;;0.20;0.00;;;;;;;9.76;89.36;93956.66;4378867;32;20288;-58
2024/01/03 04:29:58;;;;;;;0.00;0.00;;;;;;;9.78;89.10;93984.34;4375710;32;20180;-59
2024/01/03 04:32:23;;;;;;;0.20;0.20;;;;;;;9.76;89.14;93954.00;4388293;32;20210;-58
2024/01/03 04:34:48;;;;;;;0.00;0.00;;;;;;;9.78;89.09;93952.56;4388738;32;20192;-58
2024/01/03 04:37:14;;;;;;;0.00;0.00;;;;;;;9.84;88.82;93943.34;4383082;32;20214;-59
2024/01/03 04:39:39;;;;;;;0.07;0.07;;;;;;;9.81;89.21;93945.84;4372497;32;20333;-58
2024/01/03 04:42:05;;;;;;;0.00;0.00;;;;;;;9.79;89.21;93943.53;4389297;32;20200;-57
2024/01/03 04:44:30;;;;;;;0.00;0.00;;;;;;;9.82;89.07;93945.53;4387776;32;20200;-59
2024/01/03 04:46:55;;;;;;;0.03;0.03;;;;;;;9.74;89.10;93933.13;4388968;32;20217;-58
2024/01/03 04:49:21;;;;;;;0.00;0.00;;;;;;;9.74;89.48;93942.97;4381540;32;20188;-58
2024/01/03 04:51:46;;;;;;;0.00;0.00;;;;;;;9.79;89.35;93937.44;4375232;32;20193;-58
2024/01/03 04:54:11;;;;;;;0.00;0.00;;;;;;;9.82;89.46;93931.50;4382141;32;20189;-58
2024/01/03 04:56:37;;;;;;;0.20;0.20;;;;;;;9.81;89.16;93956.44;4386530;32;20274;-59
2024/01/03 04:59:03;;;;;;;0.00;0.00;;;;;;;9.76;89.07;93951.34;4377898;32;20267;-58
2024/01/03 05:01:29;;;;;;;0.77;0.20;;;;;;;9.79;89.37;93967.34;4378193;32;20211;-58
2024/01/03 05:03:54;;;;;;;0.00;0.00;;;;;;;9.85;88.82;93960.78;4387695;32;20250;-58
2024/01/03 05:06:20;;;;;;;0.17;0.17;;;;;;;10.02;88.40;93959.09;4382077;32;20196;-59
2024/01/03 05:08:45;;;;;;;0.10;0.10;;;;;;;9.92;88.85;93955.75;4374965;32;20240;-59
2024/01/03 05:11:10;;;;;;;0.00;0.00;;;;;;;9.94;88.70;93968.69;4374943;32;20292;-58
2024/01/03 05:13:36;;;;;;;0.00;0.00;;;;;;;10.01;88.74;93963.63;4372819;32;20208;-59
2024/01/03 05:16:01;;;;;;;0.10;0.10;;;;;;;10.03;88.75;93963.31;4375775;32;20197;-58
2024/01/03 05:18:27;;;;;;;0.00;0.00;;;;;;;9.96;88.36;93971.78;4385394;32;20189;-58
2024/01/03 05:20:52;;;;;;;0.00;0.00;;;;;;;10.00;88.34;93956.78;4373544;32;20236;-58
2024/01/03 05:23:18;;;;;;;0.00;0.00;;;;;;;9.90;89.53;93967.78;4385640;32;20188;-58
2024/01/03 05:25:43;;;;;;;0.00;0.00;;;;;;;9.86;90.68;93950.97;4381273;32;20192;-58
2024/01/03 05:28:08;;;;;;;0.00;0.00;;;;;;;9.81;91.38;93967.03;4388083;32;20187;-58
2024/01/03 05:30:34;;;;;;;0.00;0.00;;;;;;;9.83;91.82;93972.78;4389561;32;20257;-58
2024/01/03 05:32:59;;;;;;;0.30;0.27;;;;;;;9.68;92.89;93983.94;4390452;32;20218;-59
2024/01/03 05:35:24;;;;;;;0.00;0.00;;;;;;;9.77;92.86;93984.69;4378406;32;20223;-58
2024/01/03 05:37:51;;;;;;;0.00;0.00;;;;;;;9.77;92.24;93984.69;4376498;32;20193;-63
2024/01/03 05:40:18;;;;;;;0.00;0.00;;;;;;;9.73;92.17;93983.78;4376526;32;20201;-58
2024/01/03 05:42:43;;;;;;;0.17;0.10;;;;;;;9.84;91.80;93987.59;4389710;32;20196;-59
2024/01/03 05:45:09;;;;;;;0.00;0.00;;;;;;;9.81;92.08;94006.75;4388674;32;20216;-58
2024/01/03 05:47:34;;;;;;;0.00;0.00;;;;;;;9.86;92.39;94009.22;4385605;32;20239;-58
2024/01/03 05:50:00;;;;;;;0.00;0.00;;;;;;;9.83;93.88;94007.22;4386734;32;20193;-58
2024/01/03 05:52:25;;;;;;;0.00;0.00;;;;;;;9.83;96.27;94008.00;4388628;32;20204;-58
2024/01/03 05:54:50;;;;;;;0.00;0.00;;;;;;;9.66;97.73;93992.22;4381949;32;20257;-58
2024/01/03 05:57:16;;;;;;;0.00;0.00;;;;;;;9.54;98.73;94002.72;4390634;32;20216;-58
2024/01/03 05:59:41;;;;;;;0.00;0.00;;;;;;;9.56;99.04;94001.28;4377058;32;20181;-58
2024/01/03 06:02:06;;;;;;;0.00;0.00;;;;;;;9.42;98.84;94021.91;4374216;32;20176;-58
2024/01/03 06:04:32;;;;;;;0.10;0.10;;;;;;;9.25;99.97;94027.25;4381691;32;20199;-58
2024/01/03 06:06:57;;;;;;;0.00;0.00;;;;;;;9.31;100.00;94028.66;4388548;32;20222;-58
2024/01/03 06:09:22;;;;;;;0.00;0.00;;;;;;;9.17;100.00;94036.78;4375265;32;20232;-59
2024/01/03 06:11:48;;;;;;;0.00;0.00;;;;;;;9.05;100.00;94038.53;4383721;32;20223;-59
2024/01/03 06:14:13;;;;;;;0.00;0.00;;;;;;;9.08;100.00;94032.59;4376053;32;20212;-58
2024/01/03 06:16:38;;;;;;;0.00;0.00;;;;;;;9.07;100.00;94041.63;4385629;32;20183;-58
2024/01/03 06:19:04;;;;;;;0.00;0.00;;;;;;;9.14;100.00;94034.00;4383543;32;20244;-58
2024/01/03 06:21:29;;;;;;;0.13;0.13;;;;;;;9.22;100.00;94041.13;4389645;32;20215;-58
2024/01/03 06:23:55;;;;;;;0.00;0.00;;;;;;;9.21;100.00;94050.16;4393994;32;20203;-58
2024/01/03 06:26:25;;;;;;;0.00;0.00;;;;;;;9.08;100.00;94046.59;4385589;32;20191;-59
2024/01/03 06:28:50;;;;;;;0.00;0.00;;;;;;;9.06;100.00;94048.78;4384963;32;20189;-59
2024/01/03 06:31:21;;;;;;;0.00;0.00;;;;;;;9.11;100.00;94045.22;4374796;32;20311;-58
2024/01/03 06:33:50;;;;;;;0.00;0.00;;;;;;;8.95;100.00;94045.69;4374940;32;20184;-58
2024/01/03 06:36:17;;;;;;;0.00;0.00;;;;;;;8.95;100.00;94040.41;4357012;32;20312;-58
2024/01/03 06:38:43;;;;;;;0.00;0.00;;;;;;;9.04;100.00;94040.37;4358282;32;20434;-58
2024/01/03 06:41:10;;;;;;;0.00;0.00;;;;;;;9.02;100.00;94047.84;4372632;32;20287;-58
2024/01/03 06:43:38;;;;;;;0.00;0.00;;;;;;;9.06;100.00;94048.78;4380096;32;20300;-58
2024/01/03 06:46:06;;;;;;;0.00;0.00;;;;;;;9.10;99.95;94049.72;4375549;32;20354;-58
2024/01/03 06:48:32;;;;;;;0.00;0.00;;;;;;;9.11;99.86;94045.22;4376115;32;20285;-58
2024/01/03 06:51:02;;;;;;;0.00;0.00;;;;;;;9.20;99.19;94041.44;4374030;32;20212;-58
2024/01/03 06:53:31;;;;;;;0.00;0.00;;;;;;;9.16;99.11;94059.03;4387023;32;20319;-58
2024/01/03 06:55:59;;;;;;;0.00;0.00;;;;;;;9.23;98.81;94045.31;4348389;32;20302;-58
2024/01/03 06:58:27;;;;;;;0.00;0.00;;;;;;;9.22;98.66;94057.00;4333314;32;20302;-59
2024/01/03 07:00:52;;;;;;;0.00;0.00;;;;;;;9.28;98.22;94059.16;4367078;32;20295;-58
2024/01/03 07:03:18;;;;;;;0.00;0.00;;;;;;;9.30;98.18;94062.28;4337574;32;20298;-59
2024/01/03 07:05:43;;;;;;;0.00;0.00;;;;;;;9.37;98.12;94072.34;4341575;32;20313;-59
2024/01/03 07:08:10;;;;;;;2.03;0.20;;;;;;;9.25;98.33;94075.66;4370635;32;20247;-58
2024/01/03 07:10:36;;;;;;;0.10;0.10;;;;;;;9.30;98.17;94066.78;4364202;32;20250;-58
2024/01/03 07:13:04;;;;;;;0.00;0.00;;;;;;;9.25;98.40;94080.19;4378783;32;20284;-58
2024/01/03 07:15:31;;;;;;;0.00;0.00;;;;;;;9.33;98.23;94075.97;4334034;32;20284;-58
2024/01/03 07:17:59;;;;;;;0.17;0.17;;;;;;;9.38;97.84;94086.37;4371293;32;20292;-58
2024/01/03 07:20:27;;;;;;;0.00;0.00;;;;;;;9.30;98.21;94082.66;4374806;32;20288;-58
2024/01/03 07:22:52;;;;;;;0.10;0.10;;;;;;;9.32;98.52;94075.19;4353157;32;20412;-59
2024/01/03 07:25:17;;;;;;;0.00;0.00;;;;;;;9.32;98.05;94091.06;4368748;32;20244;-58
2024/01/03 07:27:45;;;;;;;0.00;0.00;;;;;;;9.32;97.91;94095.59;4378909;32;20189;-58
2024/01/03 07:30:14;;;;;;;0.00;0.00;;;;;;;9.39;97.80;94095.88;4373295;32;20208;-58
2024/01/03 07:32:40;;;;;;;0.00;0.00;;;;;;;9.40;97.73;94103.50;4363782;32;20285;-59
2024/01/03 07:35:07;;;;;;;0.00;0.00;;;;;;;9.42;97.61;94101.31;4377790;32;20280;-59
2024/01/03 07:37:34;;;;;;;0.20;0.20;;;;;;;9.47;97.77;94092.44;4384655;32;20197;-59
2024/01/03 07:40:00;;;;;;;0.00;0.00;;;;;;;9.48;97.12;94109.87;4372992;32;20303;-59
2024/01/03 07:42:27;;;;;;;0.20;0.20;;;;;;;9.57;96.81;94113.25;4375089;32;20288;-60
2024/01/03 07:44:52;;;;;;;0.10;0.10;;;;;;;9.55;96.32;94104.88;4373342;32;20280;-60
2024/01/03 07:47:19;;;;;;;0.20;0.20;;;;;;;9.54;95.97;94112.03;4362985;32;20189;-59
2024/01/03 07:49:47;;;;;;;0.00;0.00;;;;;;;9.53;95.50;94096.47;4339324;32;20291;-60
2024/01/03 07:52:15;;;;;;;0.20;0.20;;;;;;;9.54;93.75;94106.75;4366586;32;20457;-59
2024/01/03 07:54:42;;;;;;;0.20;0.20;;;;;;;9.57;92.49;94107.94;4374643;32;20291;-59
2024/01/03 07:57:09;;;;;;;0.20;0.20;;;;;;;9.55;93.22;94105.66;4330546;32;20286;-59
2024/01/03 07:59:40;;;;;;;0.00;0.00;;;;;;;9.56;92.86;94099.22;4349986;32;20343;-60
2024/01/03 08:02:07;;;;;;;0.27;0.13;;;;;;;9.57;92.40;94106.09;4345372;32;20201;-60
2024/01/03 08:04:35;;;;;;;0.10;0.10;;;;;;;9.60;92.01;94102.81;4352828;32;20251;-59
2024/01/03 08:07:02;;;;;;;0.10;0.10;;;;;;;9.64;91.53;94119.63;4356733;32;20304;-59
2024/01/03 08:09:32;;;;;;;0.10;0.10;;;;;;;9.54;91.18;94137.72;4345808;32;20324;-59
2024/01/03 08:12:05;;;;;;;0.40;0.30;;;;;;;9.57;91.35;94113.25;4285475;32;20313;-59
2024/01/03 08:14:34;;;;;;;0.07;0.07;;;;;;;9.58;93.11;94117.44;4334334;32;20228;-59
2024/01/03 08:17:05;;;;;;;0.20;0.20;;;;;;;9.43;94.09;94121.38;4344617;32;20177;-59
2024/01/03 08:19:32;;;;;;;0.87;0.40;;;;;;;9.33;95.16;94105.09;4355851;32;20327;-59
2024/01/03 08:22:00;;;;;;;0.30;0.27;;;;;;;9.36;95.74;94097.25;4350723;32;20209;-59
2024/01/03 08:24:26;;;;;;;0.30;0.20;;;;;;;9.28;96.33;94103.38;4293620;32;20212;-59
2024/01/03 08:26:51;;;;;;;0.57;0.40;;;;;;;9.35;96.51;94098.38;4298213;32;20201;-59
2024/01/03 08:29:18;;;;;;;0.17;0.17;;;;;;;9.29;94.74;94110.22;4321230;32;20199;-59
2024/01/03 08:31:48;;;;;;;0.20;0.20;;;;;;;9.44;93.96;94106.28;4340498;32;20335;-59
2024/01/03 08:34:15;;;;;;;0.83;0.50;;;;;;;9.27;94.09;94099.94;4327920;32;20316;-59
2024/01/03 08:36:43;;;;;;;0.37;0.30;;;;;;;9.25;93.95;94102.13;4341595;32;20359;-61
2024/01/03 08:39:11;;;;;;;0.03;0.03;;;;;;;9.40;93.67;94092.91;4324390;32;20345;-59
2024/01/03 08:41:38;;;;;;;0.53;0.37;;;;;;;9.36;93.13;94096.50;4286701;32;20326;-59
2024/01/03 08:44:05;;;;;;;0.00;0.00;;;;;;;9.44;92.54;94107.06;4338286;32;20308;-59
2024/01/03 08:46:42;;;;;;;0.33;0.33;;;;;;;9.50;92.04;94097.88;4297018;32;20351;-59
2024/01/03 08:49:11;;;;;;;0.07;0.00;;;;;;;9.51;91.14;94094.13;4327278;32;20301;-61
2024/01/03 08:51:42;;;;;;;0.87;0.53;;;;;;;9.61;90.96;94106.22;4295139;32;20298;-59
2024/01/03 08:54:08;;;;;;;0.10;0.10;;;;;;;9.70;90.05;94111.50;4323875;32;20316;-58
2024/01/03 08:56:39;;;;;;;0.00;0.00;;;;;;;9.74;90.00;94097.31;4365277;32;20312;-58
2024/01/03 08:59:05;;;;;;;0.20;0.20;;;;;;;9.82;89.98;94098.38;4378175;32;20284;-59
2024/01/03 09:01:34;;;;;;;0.03;0.03;;;;;;;9.83;89.37;94090.09;4370864;32;20357;-58
2024/01/03 09:04:01;;;;;;;0.30;0.30;;;;;;;9.94;88.80;94103.78;4362230;32;20219;-59
2024/01/03 09:06:32;;;;;;;0.30;0.30;;;;;;;9.99;88.53;94114.97;4353077;32;20218;-58
2024/01/03 09:08:58;;;;;;;0.20;0.20;;;;;;;10.02;87.62;94115.41;4373986;32;20301;-58
2024/01/03 09:11:30;;;;;;;0.17;0.17;;;;;;;10.05;87.40;94118.22;4325885;32;20201;-59
2024/01/03 09:13:57;;;;;;;0.00;0.00;;;;;;;10.06;87.40;94119.75;4361201;32;20193;-58
2024/01/03 09:16:30;;;;;;;0.00;0.00;;;;;;;10.08;87.23;94112.28;4349190;32;20197;-59
2024/01/03 09:18:56;;;;;;;0.20;0.20;;;;;;;10.09;87.06;94108.53;4349714;32;20252;-58
2024/01/03 09:21:22;;;;;;;0.20;0.20;;;;;;;10.09;86.34;94108.53;4365897;32;20229;-58
2024/01/03 09:23:51;;;;;;;0.53;0.43;;;;;;;10.11;85.96;94103.69;4355129;32;20236;-59
2024/01/03 09:26:21;;;;;;;0.43;0.10;;;;;;;10.15;85.56;94090.59;4374536;32;20197;-59
2024/01/03 09:28:49;;;;;;;0.00;0.00;;;;;;;10.16;84.59;94092.91;4352753;32;20196;-58
2024/01/03 09:31:16;;;;;;;0.20;0.10;;;;;;;10.18;84.90;94098.69;4362208;32;20200;-58
2024/01/03 09:33:41;;;;;;;0.00;0.00;;;;;;;10.28;84.11;94082.41;4376065;32;20256;-59
2024/01/03 09:36:18;;;;;;;0.30;0.17;;;;;;;10.31;83.42;94073.81;4366850;32;20231;-59
2024/01/03 09:38:44;;;;;;;0.00;0.00;;;;;;;10.39;83.31;94076.75;4358855;32;20278;-58
2024/01/03 09:41:14;;;;;;;0.13;0.13;;;;;;;10.49;82.93;94090.38;4349072;32;20228;-58
2024/01/03 09:43:45;;;;;;;0.37;0.37;;;;;;;10.48;82.85;94088.06;4370939;32;20193;-58
2024/01/03 09:46:12;;;;;;;0.00;0.00;;;;;;;10.43;82.07;94072.34;4367433;32;20353;-58
2024/01/03 09:48:41;;;;;;;0.10;0.10;;;;;;;10.40;82.14;94080.94;4325075;32;20205;-58
2024/01/03 09:51:08;;;;;;;0.20;0.20;;;;;;;10.43;81.87;94085.59;4342488;32;20204;-58
2024/01/03 09:53:37;;;;;;;0.20;0.20;;;;;;;10.38;81.43;94096.41;4324296;32;20298;-58
2024/01/03 09:56:05;;;;;;;0.00;0.00;;;;;;;10.43;81.57;94093.53;4365282;32;20232;-58
2024/01/03 09:58:33;;;;;;;0.40;0.40;;;;;;;10.58;80.38;94077.09;4343821;32;20211;-58
2024/01/03 10:01:00;;;;;;;0.00;0.00;;;;;;;10.57;80.16;94091.44;4359379;32;20185;-59
2024/01/03 10:03:28;;;;;;;0.70;0.13;;;;;;;10.69;79.11;94078.22;4359446;32;20212;-58
2024/01/03 10:06:17;;;;;;;0.83;0.40;;;;;;;10.72;78.33;94087.41;4359659;32;20189;-59
2024/01/03 10:09:02;;;;;;;0.10;0.10;;;;;;;10.81;78.26;94057.06;4375088;32;20268;-59
2024/01/03 10:11:28;;;;;;;1.23;0.20;;;;;;;10.91;76.76;94074.47;4350311;32;20196;-59
2024/01/03 10:14:14;;;;;;;2.37;0.37;;;;;;;10.91;77.21;94091.16;4368121;32;20220;-61
2024/01/03 10:16:51;;;;;;;0.30;0.30;;;;;;;10.93;77.39;94081.00;4374807;32;20295;-59
2024/01/03 10:19:20;;;;;;;0.10;0.10;;;;;;;11.06;77.26;94081.81;4375554;32;20198;-60
2024/01/03 10:21:54;;;;;;;0.10;0.10;;;;;;;11.15;75.60;94084.41;4315621;32;20247;-60
2024/01/03 10:24:26;;;;;;;0.20;0.20;;;;;;;11.17;75.25;94068.94;4373740;32;20198;-59
2024/01/03 10:26:51;;;;;;;0.10;0.10;;;;;;;11.14;74.12;94074.88;4340836;32;20213;-61
2024/01/03 10:29:23;;;;;;;0.43;0.43;;;;;;;11.21;74.26;94075.12;4348757;32;20199;-60
2024/01/03 10:31:50;;;;;;;0.10;0.10;;;;;;;11.14;73.83;94077.53;4342546;32;20215;-60
2024/01/03 10:34:24;;;;;;;0.10;0.10;;;;;;;11.12;75.19;94075.22;4377111;32;20200;-59
2024/01/03 10:36:52;;;;;;;0.20;0.17;;;;;;;11.21;73.24;94117.59;4361993;32;20211;-59
2024/01/03 10:39:22;;;;;;;0.27;0.27;;;;;;;11.21;72.78;94083.09;4372613;32;20196;-60
2024/01/03 10:41:50;;;;;;;0.13;0.13;;;;;;;11.15;72.12;94074.56;4343714;32;20239;-60
2024/01/03 10:44:22;;;;;;;0.30;0.30;;;;;;;11.14;71.34;94041.16;4353039;32;20241;-59
2024/01/03 10:46:54;;;;;;;1.30;0.20;;;;;;;11.17;69.73;94069.69;4383170;32;20195;-59
2024/01/03 10:49:36;;;;;;;0.00;0.00;;;;;;;11.14;69.19;94086.28;4368342;32;20310;-59
2024/01/03 10:52:06;;;;;;;0.13;0.13;;;;;;;11.16;69.76;94080.66;4356983;32;20200;-60
2024/01/03 10:54:46;;;;;;;0.43;0.43;;;;;;;11.14;69.94;94088.16;4352218;32;20260;-59
2024/01/03 10:57:16;;;;;;;0.30;0.20;;;;;;;11.16;67.61;94056.75;4347943;32;20219;-60
2024/01/03 10:59:55;;;;;;;0.00;0.00;;;;;;;11.16;68.02;94075.34;4339588;32;20188;-59
2024/01/03 11:02:31;;;;;;;0.20;0.20;;;;;;;11.19;67.31;94061.41;4369381;32;20188;-61
2024/01/03 11:05:11;;;;;;;0.10;0.10;;;;;;;11.26;68.43;94032.44;4339008;32;20218;-60
2024/01/03 11:07:51;;;;;;;0.33;0.33;;;;;;;11.22;66.41;94058.09;4352851;32;20242;-60
2024/01/03 11:10:53;;;;;;;0.93;0.30;;;;;;;11.29;65.44;94063.63;4373821;32;20330;-59
2024/01/03 11:13:33;;;;;;;0.10;0.10;;;;;;;11.28;66.18;94048.81;4357201;32;20301;-59
2024/01/03 11:16:05;;;;;;;0.23;0.23;;;;;;;11.37;65.89;94065.44;4358496;32;20208;-58
2024/01/03 11:18:45;;;;;;;0.17;0.17;;;;;;;11.35;65.32;94041.88;4361553;32;20264;-59
2024/01/03 11:21:31;;;;;;;0.10;0.10;;;;;;;11.34;65.13;94050.16;4382444;32;20271;-58
2024/01/03 11:23:59;;;;;;;0.33;0.33;;;;;;;11.39;65.07;94046.53;4360383;32;20197;-58
2024/01/03 11:26:55;;;;;;;0.10;0.10;;;;;;;11.43;58.24;94044.75;4369481;32;20252;-58
2024/01/03 11:29:51;;;;;;;0.90;0.20;;;;;;;11.46;56.19;94026.28;4349564;32;20219;-58
2024/01/03 11:32:29;;;;;;;0.43;0.43;;;;;;;11.47;55.65;94027.03;4367895;32;20305;-59
2024/01/03 11:35:04;;;;;;;0.93;0.40;;;;;;;11.53;55.56;94009.81;4374018;32;20196;-60
2024/01/03 11:37:33;;;;;;;0.10;0.07;;;;;;;11.53;54.12;94017.75;4363716;32;20207;-58
2024/01/03 11:40:06;;;;;;;0.63;0.63;;;;;;;11.51;54.75;94012.78;4377699;32;20244;-59
2024/01/03 11:42:38;;;;;;;0.10;0.10;;;;;;;11.53;54.13;94023.84;4364385;32;20196;-58
2024/01/03 11:45:15;;;;;;;0.20;0.20;;;;;;;11.58;53.12;94006.94;4355500;32;20205;-58